createdAt,value
2022-08-14T00:01:54.943Z,49.99
2022-08-14T00:04:36.029Z,49.75
2022-08-14T00:07:14.067Z,49.67
2022-08-14T00:10:01.480Z,49.62
2022-08-14T00:12:37.764Z,49.49
2022-08-14T00:15:19.392Z,48.98
2022-08-14T00:17:53.150Z,48.70
2022-08-14T00:20:30.771Z,48.13
2022-08-14T00:23:12.383Z,47.40
2022-08-14T00:25:58.591Z,47.34
2022-08-14T00:28:29.185Z,46.85
2022-08-14T00:31:02.006Z,46.49
2022-08-14T00:33:52.123Z,46.34
2022-08-14T00:36:35.040Z,46.01
2022-08-14T00:39:04.804Z,46.01
2022-08-14T00:41:33.970Z,46.28
2022-08-14T00:44:01.466Z,46.84
2022-08-14T00:46:32.674Z,47.17
2022-08-14T00:49:02.144Z,47.78
2022-08-14T00:51:34.509Z,47.91
2022-08-14T00:54:11.028Z,48.33
2022-08-14T00:56:49.505Z,48.54
2022-08-14T00:59:16.302Z,48.74
2022-08-14T01:01:44.591Z,48.92
2022-08-14T01:04:52.453Z,48.96
2022-08-14T01:06:59.334Z,49.13
2022-08-14T01:09:26.723Z,49.23
2022-08-14T01:12:03.297Z,49.50
2022-08-14T01:14:31.293Z,49.65
2022-08-14T01:17:00.413Z,49.73
2022-08-14T01:19:46.805Z,49.73
2022-08-14T01:22:18.859Z,50.10
2022-08-14T01:24:47.050Z,49.96
2022-08-14T01:27:24.196Z,50.35
2022-08-14T01:30:01.416Z,50.41
2022-08-14T01:32:37.402Z,50.58
2022-08-14T01:35:19.906Z,50.66
2022-08-14T01:37:57.615Z,50.63
2022-08-14T01:40:37.037Z,51.00
2022-08-14T01:43:15.890Z,50.93
2022-08-14T01:45:57.973Z,50.95
2022-08-14T01:48:37.637Z,51.04
2022-08-14T01:51:19.191Z,51.23
2022-08-14T01:53:50.474Z,51.23
2022-08-14T01:56:37.475Z,51.50
2022-08-14T01:59:22.253Z,51.40
2022-08-14T02:01:58.016Z,51.42
2022-08-14T02:04:56.026Z,51.50
2022-08-14T02:07:34.211Z,51.67
2022-08-14T02:10:06.872Z,51.76
2022-08-14T02:12:34.017Z,51.84
2022-08-14T02:15:01.968Z,51.82
2022-08-14T02:17:34.048Z,52.06
2022-08-14T02:20:01.046Z,52.20
2022-08-14T02:22:33.136Z,52.04
2022-08-14T02:25:01.558Z,52.34
2022-08-14T02:28:25.370Z,52.30
2022-08-14T02:30:17.319Z,52.39
2022-08-14T02:32:46.037Z,52.38
2022-08-14T02:35:18.901Z,52.56
2022-08-14T02:37:50.065Z,52.61
2022-08-14T02:40:19.190Z,52.59
2022-08-14T02:42:54.546Z,52.94
2022-08-14T02:45:33.404Z,52.70
2022-08-14T02:48:10.080Z,52.76
2022-08-14T02:50:39.287Z,52.60
2022-08-14T02:53:06.457Z,52.39
2022-08-14T02:55:35.822Z,52.00
2022-08-14T02:58:05.955Z,51.51
2022-08-14T03:00:39.877Z,51.52
2022-08-14T03:03:10.348Z,51.50
2022-08-14T03:05:41.237Z,50.98
2022-08-14T03:08:16.230Z,51.37
2022-08-14T03:10:49.066Z,51.15
2022-08-14T03:13:20.777Z,50.97
2022-08-14T03:15:56.186Z,50.63
2022-08-14T03:18:31.273Z,50.30
2022-08-14T03:21:07.935Z,49.90
2022-08-14T03:23:38.516Z,49.87
2022-08-14T03:26:12.658Z,49.75
2022-08-14T03:28:52.241Z,49.87
2022-08-14T03:31:25.946Z,49.61
2022-08-14T03:33:54.390Z,49.34
2022-08-14T03:37:28.834Z,49.29
2022-08-14T03:39:22.706Z,49.13
2022-08-14T03:41:53.817Z,49.04
2022-08-14T03:45:26.285Z,49.36
2022-08-14T03:47:08.444Z,49.04
2022-08-14T03:49:40.419Z,48.91
2022-08-14T03:52:37.894Z,48.80
2022-08-14T03:54:55.751Z,49.05
2022-08-14T03:57:23.719Z,48.84
2022-08-14T03:59:51.058Z,48.85
2022-08-14T04:02:33.377Z,48.65
2022-08-14T04:05:11.563Z,48.50
2022-08-14T04:07:39.537Z,48.33
2022-08-14T04:10:17.143Z,48.21
2022-08-14T04:12:51.660Z,48.45
2022-08-14T04:15:20.194Z,48.46
2022-08-14T04:17:50.387Z,48.48
2022-08-14T04:20:25.469Z,48.48
2022-08-14T04:22:55.505Z,48.22
2022-08-14T04:25:22.697Z,48.06
2022-08-14T04:28:02.377Z,47.88
2022-08-14T04:30:32.616Z,47.62
2022-08-14T04:33:06.425Z,47.82
2022-08-14T04:35:56.489Z,47.58
2022-08-14T04:38:43.513Z,47.27
2022-08-14T04:41:32.746Z,47.18
2022-08-14T04:43:59.591Z,47.06
2022-08-14T04:46:56.851Z,46.77
2022-08-14T04:49:15.529Z,46.68
2022-08-14T04:51:55.544Z,46.46
2022-08-14T04:54:26.995Z,46.61
2022-08-14T04:56:57.614Z,46.37
2022-08-14T04:59:25.197Z,46.56
2022-08-14T05:01:56.982Z,46.45
2022-08-14T05:04:25.241Z,46.00
2022-08-14T05:06:55.229Z,45.72
2022-08-14T05:09:29.086Z,45.54
2022-08-14T05:12:00.637Z,45.25
2022-08-14T05:14:55.247Z,45.31
2022-08-14T05:17:28.770Z,44.97
2022-08-14T05:21:04.355Z,44.46
2022-08-14T05:22:59.902Z,44.20
2022-08-14T05:25:30.690Z,44.27
2022-08-14T05:28:19.289Z,44.15
2022-08-14T05:30:52.708Z,43.72
2022-08-14T05:33:21.192Z,43.69
2022-08-14T05:35:49.111Z,43.99
2022-08-14T05:38:22.471Z,43.24
2022-08-14T05:41:00.689Z,42.90
2022-08-14T05:43:40.853Z,43.01
2022-08-14T05:46:15.376Z,42.37
2022-08-14T05:48:42.992Z,41.54
2022-08-14T05:51:10.372Z,39.51
2022-08-14T05:53:37.349Z,36.23
2022-08-14T05:56:09.374Z,34.23
2022-08-14T05:58:41.460Z,32.20
2022-08-14T06:01:09.635Z,27.64
2022-08-14T06:03:37.253Z,27.54
2022-08-14T06:06:07.704Z,29.03
2022-08-14T06:08:41.500Z,30.56
2022-08-14T06:11:09.506Z,31.79
2022-08-14T06:13:45.040Z,32.25
2022-08-14T06:16:17.817Z,33.15
2022-08-14T06:18:51.982Z,33.82
2022-08-14T06:21:23.486Z,33.39
2022-08-14T06:23:50.978Z,32.14
2022-08-14T06:26:20.889Z,32.11
2022-08-14T06:28:52.031Z,30.55
2022-08-14T06:31:21.067Z,28.97
2022-08-14T06:35:10.611Z,30.47
2022-08-14T06:36:37.813Z,31.40
2022-08-14T06:39:04.679Z,31.93
2022-08-14T06:41:58.355Z,29.76
2022-08-14T06:44:30.667Z,29.37
2022-08-14T06:47:00.368Z,28.95
2022-08-14T06:49:27.485Z,28.96
2022-08-14T06:51:57.535Z,29.12
2022-08-14T06:54:31.755Z,29.60
2022-08-14T06:56:59.036Z,29.89
2022-08-14T06:59:26.313Z,30.72
2022-08-14T07:02:13.199Z,30.72
2022-08-14T07:04:59.101Z,31.68
2022-08-14T07:07:28.704Z,30.93
2022-08-14T07:09:56.121Z,30.09
2022-08-14T07:12:34.881Z,29.83
2022-08-14T07:15:11.128Z,29.77
2022-08-14T07:17:46.705Z,29.65
2022-08-14T07:20:30.571Z,29.08
2022-08-14T07:23:07.352Z,28.50
2022-08-14T07:25:37.524Z,25.42
2022-08-14T07:28:20.357Z,18.88
2022-08-14T07:30:51.490Z,15.46
2022-08-14T07:33:24.550Z,13.37
2022-08-14T07:35:59.258Z,12.64
2022-08-14T07:38:35.685Z,11.86
2022-08-14T07:41:11.865Z,10.14
2022-08-14T07:43:47.526Z,9.27
2022-08-14T07:46:29.451Z,7.97
2022-08-14T07:48:58.729Z,8.08
2022-08-14T07:51:34.057Z,7.83
2022-08-14T07:54:04.405Z,7.35
2022-08-14T07:56:47.134Z,7.51
2022-08-14T07:59:18.531Z,7.43
2022-08-14T08:01:48.439Z,6.27
2022-08-14T08:04:24.301Z,6.55
2022-08-14T08:06:53.232Z,6.12
2022-08-14T08:09:32.149Z,5.66
2022-08-14T08:12:05.125Z,6.00
2022-08-14T08:14:56.335Z,5.09
2022-08-14T08:17:24.964Z,4.23
2022-08-14T08:19:52.331Z,4.27
2022-08-14T08:22:21.378Z,4.34
2022-08-14T08:24:50.434Z,4.71
2022-08-14T08:27:21.415Z,4.31
2022-08-14T08:29:51.019Z,4.46
2022-08-14T08:32:18.727Z,3.96
2022-08-14T08:34:47.071Z,4.68
2022-08-14T08:37:15.341Z,6.44
2022-08-14T08:40:02.405Z,7.73
2022-08-14T08:42:31.580Z,6.50
2022-08-14T08:45:11.821Z,5.29
2022-08-14T08:47:40.502Z,5.38
2022-08-14T08:50:23.465Z,5.14
2022-08-14T08:53:09.581Z,4.41
2022-08-14T08:55:45.043Z,3.94
2022-08-14T08:58:24.824Z,4.42
2022-08-14T09:00:57.871Z,3.87
2022-08-14T09:03:27.925Z,3.95
2022-08-14T09:06:01.342Z,3.50
2022-08-14T09:08:36.957Z,3.48
2022-08-14T09:11:19.461Z,3.78
2022-08-14T09:13:53.156Z,4.39
2022-08-14T09:16:23.690Z,4.19
2022-08-14T09:18:53.175Z,5.47
2022-08-14T09:21:24.191Z,4.69
2022-08-14T09:24:28.183Z,4.01
2022-08-14T09:26:49.584Z,3.54
2022-08-14T09:29:22.905Z,3.64
2022-08-14T09:31:58.085Z,3.01
2022-08-14T09:35:03.919Z,3.64
2022-08-14T09:37:45.155Z,4.09
2022-08-14T09:40:21.745Z,6.56
2022-08-14T09:43:14.778Z,7.44
2022-08-14T09:45:52.870Z,9.67
2022-08-14T09:48:29.878Z,11.19
2022-08-14T09:50:58.613Z,12.73
2022-08-14T09:54:19.035Z,13.25
2022-08-14T09:56:46.944Z,14.50
2022-08-14T09:59:25.592Z,15.32
2022-08-14T10:01:57.415Z,16.14
2022-08-14T10:04:36.710Z,16.25
2022-08-14T10:07:08.576Z,16.70
2022-08-14T10:09:59.491Z,17.54
2022-08-14T10:12:53.163Z,18.61
2022-08-14T10:15:26.066Z,19.56
2022-08-14T10:18:17.607Z,20.13
2022-08-14T10:21:01.014Z,20.67
2022-08-14T10:23:40.014Z,20.72
2022-08-14T10:26:09.016Z,20.77
2022-08-14T10:29:18.984Z,22.02
2022-08-14T10:31:40.236Z,22.28
2022-08-14T10:34:29.038Z,22.28
2022-08-14T10:37:05.725Z,22.66
2022-08-14T10:40:02.012Z,22.58
2022-08-14T10:42:39.605Z,22.81
2022-08-14T10:45:22.803Z,22.76
2022-08-14T10:48:07.513Z,23.15
2022-08-14T10:50:41.445Z,23.63
2022-08-14T10:53:09.691Z,23.86
2022-08-14T10:55:45.019Z,23.95
2022-08-14T10:58:14.701Z,23.59
2022-08-14T11:00:47.305Z,23.61
2022-08-14T11:03:19.919Z,23.45
2022-08-14T11:05:55.950Z,24.19
2022-08-14T11:08:34.136Z,23.92
2022-08-14T11:11:04.163Z,24.81
2022-08-14T11:13:31.588Z,24.10
2022-08-14T11:16:01.285Z,23.66
2022-08-14T11:18:36.320Z,23.97
2022-08-14T11:21:09.351Z,24.06
2022-08-14T11:23:39.708Z,24.04
2022-08-14T11:26:10.314Z,24.29
2022-08-14T11:28:47.381Z,24.28
2022-08-14T11:31:25.747Z,24.55
2022-08-14T11:33:58.617Z,24.69
2022-08-14T11:36:57.212Z,24.82
2022-08-14T11:39:22.970Z,24.89
2022-08-14T11:42:56.921Z,24.83
2022-08-14T11:45:10.984Z,25.02
2022-08-14T11:47:43.859Z,25.21
2022-08-14T11:50:36.937Z,25.59
2022-08-14T11:53:06.859Z,25.57
2022-08-14T11:55:39.143Z,25.83
2022-08-14T11:58:11.959Z,26.08
2022-08-14T12:00:50.085Z,26.41
2022-08-14T12:03:37.642Z,27.08
2022-08-14T12:06:29.266Z,27.32
2022-08-14T12:09:08.273Z,27.17
2022-08-14T12:11:43.212Z,26.90
2022-08-14T12:14:13.357Z,26.94
2022-08-14T12:17:12.128Z,26.48
2022-08-14T12:19:54.010Z,26.85
2022-08-14T12:22:44.392Z,27.09
2022-08-14T12:25:29.892Z,27.02
2022-08-14T12:28:01.704Z,27.78
2022-08-14T12:30:43.161Z,27.87
2022-08-14T12:33:33.384Z,27.59
2022-08-14T12:36:06.188Z,28.24
2022-08-14T12:38:37.809Z,27.78
2022-08-14T12:41:10.600Z,28.09
2022-08-14T12:43:59.727Z,27.74
2022-08-14T12:46:40.742Z,28.13
2022-08-14T12:49:11.387Z,28.19
2022-08-14T12:51:38.170Z,28.50
2022-08-14T12:54:26.915Z,28.31
2022-08-14T12:57:19.523Z,27.85
2022-08-14T12:59:47.681Z,27.57
2022-08-14T13:02:38.814Z,27.70
2022-08-14T13:05:15.101Z,28.09
2022-08-14T13:07:45.656Z,27.31
2022-08-14T13:10:47.459Z,27.36
2022-08-14T13:13:15.235Z,27.52
2022-08-14T13:15:57.305Z,27.19
2022-08-14T13:18:28.111Z,27.21
2022-08-14T13:21:01.146Z,26.90
2022-08-14T13:23:36.223Z,27.32
2022-08-14T13:26:04.625Z,27.14
2022-08-14T13:28:41.344Z,27.48
2022-08-14T13:31:31.058Z,27.50
2022-08-14T13:34:01.444Z,27.40
2022-08-14T13:36:51.862Z,27.03
2022-08-14T13:39:17.023Z,27.24
2022-08-14T13:41:44.676Z,27.61
2022-08-14T13:44:15.548Z,27.91
2022-08-14T13:46:51.103Z,28.22
2022-08-14T13:49:19.451Z,28.18
2022-08-14T13:51:59.161Z,28.45
2022-08-14T13:54:31.351Z,28.71
2022-08-14T13:57:01.244Z,28.59
2022-08-14T13:59:38.112Z,28.81
2022-08-14T14:02:07.871Z,29.02
2022-08-14T14:04:39.804Z,29.35
2022-08-14T14:07:14.205Z,29.18
2022-08-14T14:09:52.791Z,29.34
2022-08-14T14:12:38.248Z,29.75
2022-08-14T14:15:13.878Z,29.41
2022-08-14T14:17:43.981Z,29.21
2022-08-14T14:20:35.258Z,29.26
2022-08-14T14:23:11.741Z,29.08
2022-08-14T14:25:50.442Z,29.24
2022-08-14T14:28:24.459Z,29.43
2022-08-14T14:30:54.545Z,29.21
2022-08-14T14:33:45.219Z,29.30
2022-08-14T14:36:15.173Z,28.87
2022-08-14T14:39:04.267Z,28.88
2022-08-14T14:41:43.802Z,29.15
2022-08-14T14:44:16.028Z,28.87
2022-08-14T14:46:49.577Z,29.21
2022-08-14T14:49:21.842Z,29.48
2022-08-14T14:51:51.145Z,29.67
2022-08-14T14:54:31.580Z,30.02
2022-08-14T14:57:04.957Z,29.86
2022-08-14T14:59:37.560Z,29.93
2022-08-14T15:02:07.805Z,29.89
2022-08-14T15:04:38.074Z,29.74
2022-08-14T15:07:06.893Z,30.08
2022-08-14T15:09:34.064Z,30.05
2022-08-14T15:12:16.302Z,29.93
2022-08-14T15:14:54.780Z,29.98
2022-08-14T15:17:25.110Z,29.88
2022-08-14T15:19:56.655Z,30.10
2022-08-14T15:22:25.094Z,30.48
2022-08-14T15:24:52.250Z,30.70
2022-08-14T15:27:26.234Z,30.92
2022-08-14T15:29:53.983Z,30.50
2022-08-14T15:32:23.264Z,30.53
2022-08-14T15:34:51.927Z,30.73
2022-08-14T15:37:23.096Z,30.74
2022-08-14T15:39:52.597Z,30.96
2022-08-14T15:42:23.136Z,30.95
2022-08-14T15:44:57.768Z,30.95
2022-08-14T15:47:30.066Z,31.10
2022-08-14T15:50:00.317Z,31.20
2022-08-14T15:52:35.237Z,31.34
2022-08-14T15:55:15.308Z,31.57
2022-08-14T15:58:02.045Z,31.46
2022-08-14T16:00:51.855Z,31.42
2022-08-14T16:03:27.916Z,32.02
2022-08-14T16:06:15.643Z,31.59
2022-08-14T16:08:50.418Z,31.69
2022-08-14T16:11:27.483Z,31.50
2022-08-14T16:13:59.868Z,31.37
2022-08-14T16:16:34.592Z,31.59
2022-08-14T16:19:19.459Z,31.90
2022-08-14T16:22:01.709Z,31.90
2022-08-14T16:25:02.069Z,32.51
2022-08-14T16:27:39.327Z,32.28
2022-08-14T16:30:25.062Z,32.69
2022-08-14T16:32:57.690Z,33.36
2022-08-14T16:35:42.222Z,33.87
2022-08-14T16:38:44.886Z,34.23
2022-08-14T16:41:27.296Z,34.71
2022-08-14T16:44:04.717Z,34.64
2022-08-14T16:46:35.290Z,34.74
2022-08-14T16:49:07.655Z,35.10
2022-08-14T16:51:38.332Z,34.97
2022-08-14T16:54:34.116Z,35.20
2022-08-14T16:57:22.860Z,35.06
2022-08-14T16:59:57.626Z,35.03
2022-08-14T17:02:42.960Z,35.01
2022-08-14T17:05:24.940Z,35.51
2022-08-14T17:08:33.279Z,34.85
2022-08-14T17:11:11.116Z,35.37
2022-08-14T17:13:58.555Z,35.64
2022-08-14T17:16:37.637Z,35.77
2022-08-14T17:19:09.744Z,35.79
2022-08-14T17:21:47.412Z,35.66
2022-08-14T17:24:56.449Z,35.79
2022-08-14T17:27:05.274Z,35.91
2022-08-14T17:29:54.370Z,36.01
2022-08-14T17:32:29.519Z,35.97
2022-08-14T17:35:12.030Z,35.90
2022-08-14T17:37:55.900Z,35.86
2022-08-14T17:40:30.110Z,35.82
2022-08-14T17:43:02.382Z,36.20
2022-08-14T17:45:41.179Z,35.99
2022-08-14T17:49:15.559Z,35.97
2022-08-14T17:51:23.872Z,36.05
2022-08-14T17:54:02.933Z,35.95
2022-08-14T17:56:33.227Z,35.98
2022-08-14T17:59:05.984Z,36.15
2022-08-14T18:01:46.443Z,36.67
2022-08-14T18:04:24.795Z,36.54
2022-08-14T18:07:16.352Z,36.94
2022-08-14T18:10:00.432Z,37.15
2022-08-14T18:12:47.880Z,37.18
2022-08-14T18:15:18.564Z,37.17
2022-08-14T18:17:53.135Z,37.02
2022-08-14T18:21:39.832Z,37.13
2022-08-14T18:23:13.749Z,37.08
2022-08-14T18:25:52.888Z,37.29
2022-08-14T18:28:48.226Z,37.40
2022-08-14T18:31:20.966Z,37.99
2022-08-14T18:33:56.793Z,37.26
2022-08-14T18:36:47.129Z,36.24
2022-08-14T18:39:24.650Z,36.02
2022-08-14T18:41:54.117Z,35.37
2022-08-14T18:44:54.831Z,35.21
2022-08-14T18:47:26.060Z,35.06
2022-08-14T18:49:57.963Z,34.97
2022-08-14T18:52:39.965Z,34.86
2022-08-14T18:55:18.619Z,34.69
2022-08-14T18:58:27.448Z,35.00
2022-08-14T19:00:58.752Z,35.47
2022-08-14T19:03:36.781Z,35.34
2022-08-14T19:06:05.101Z,35.62
2022-08-14T19:08:42.833Z,35.45
2022-08-14T19:11:50.416Z,35.55
2022-08-14T19:14:46.298Z,35.90
2022-08-14T19:18:13.782Z,35.72
2022-08-14T19:21:00.098Z,35.87
2022-08-14T19:23:42.240Z,36.27
2022-08-14T19:26:54.411Z,35.86
2022-08-14T19:29:38.135Z,36.12
2022-08-14T19:32:39.159Z,36.03
2022-08-14T19:35:55.215Z,36.13
2022-08-14T19:39:11.997Z,36.20
2022-08-14T19:41:40.830Z,36.72
2022-08-14T19:44:19.601Z,36.69
2022-08-14T19:47:00.489Z,36.48
2022-08-14T19:50:09.125Z,36.38
2022-08-14T19:52:29.618Z,36.61
2022-08-14T19:54:57.825Z,36.83
2022-08-14T19:57:36.079Z,37.00
2022-08-14T20:00:28.451Z,36.90
2022-08-14T20:03:11.301Z,37.14
2022-08-14T20:05:45.607Z,37.24
2022-08-14T20:11:01.313Z,37.45
2022-08-14T20:11:14.309Z,37.55
2022-08-14T20:14:20.496Z,37.63
2022-08-14T20:16:54.286Z,37.83
2022-08-14T20:19:29.188Z,37.89
2022-08-14T20:22:34.997Z,37.99
2022-08-14T20:24:50.009Z,38.09
2022-08-14T20:27:39.619Z,38.42
2022-08-14T20:33:07.890Z,38.87
2022-08-14T20:35:43.722Z,38.62
2022-08-14T20:38:29.641Z,38.86
2022-08-14T20:41:09.670Z,38.75
2022-08-14T20:43:59.756Z,39.18
2022-08-14T20:46:31.320Z,39.22
2022-08-14T20:49:08.649Z,39.34
2022-08-14T20:51:54.521Z,39.37
2022-08-14T20:54:36.429Z,39.59
2022-08-14T20:57:17.657Z,39.75
2022-08-14T20:59:57.250Z,39.61
2022-08-14T21:02:30.507Z,39.53
2022-08-14T21:05:16.239Z,39.68
2022-08-14T21:07:44.653Z,39.67
2022-08-14T21:10:33.984Z,40.20
2022-08-14T21:13:27.882Z,39.93
2022-08-14T21:15:57.291Z,39.88
2022-08-14T21:18:31.795Z,39.72
2022-08-14T21:21:01.425Z,39.84
2022-08-14T21:23:55.207Z,39.95
2022-08-14T21:26:51.254Z,39.79
2022-08-14T21:29:13.586Z,39.88
2022-08-14T21:31:55.755Z,39.88
2022-08-14T21:34:27.400Z,39.66
2022-08-14T21:37:07.878Z,40.12
2022-08-14T21:39:37.372Z,39.96
2022-08-14T21:42:06.300Z,40.20
2022-08-14T21:44:35.833Z,40.22
2022-08-14T21:47:16.557Z,40.69
2022-08-14T21:49:47.896Z,40.53
2022-08-14T21:52:50.716Z,40.58
2022-08-14T21:55:10.376Z,40.82
2022-08-14T21:57:56.484Z,40.63
2022-08-14T22:00:42.489Z,40.61
2022-08-14T22:03:17.330Z,40.91
2022-08-14T22:05:49.931Z,40.76
2022-08-14T22:08:18.328Z,41.01
2022-08-14T22:10:51.517Z,40.86
2022-08-14T22:13:24.654Z,41.10
2022-08-14T22:15:58.185Z,41.00
2022-08-14T22:18:27.217Z,41.26
2022-08-14T22:20:57.504Z,41.16
2022-08-14T22:23:25.865Z,41.00
2022-08-14T22:25:55.301Z,41.24
2022-08-14T22:28:33.211Z,41.23
2022-08-14T22:31:10.285Z,41.49
2022-08-14T22:33:39.139Z,41.39
2022-08-14T22:36:26.309Z,41.41
2022-08-14T22:38:54.746Z,41.50
2022-08-14T22:41:27.563Z,41.65
2022-08-14T22:44:02.198Z,41.65
2022-08-14T22:46:29.112Z,41.59
2022-08-14T22:48:57.575Z,41.70
2022-08-14T22:51:27.706Z,41.86
2022-08-14T22:53:55.872Z,41.91
2022-08-14T22:56:29.523Z,41.73
2022-08-14T22:59:02.066Z,41.82
2022-08-14T23:01:56.139Z,41.87
2022-08-14T23:04:34.929Z,42.04
2022-08-14T23:07:14.492Z,41.95
2022-08-14T23:09:57.500Z,42.04
2022-08-14T23:12:34.776Z,42.20
2022-08-14T23:15:02.260Z,42.21
2022-08-14T23:17:39.616Z,42.21
2022-08-14T23:20:19.120Z,42.12
2022-08-14T23:22:48.830Z,42.16
2022-08-14T23:25:32.420Z,42.41
2022-08-14T23:28:07.190Z,42.48
2022-08-14T23:30:55.365Z,42.52
2022-08-14T23:33:22.378Z,42.53
2022-08-14T23:35:59.050Z,42.84
2022-08-14T23:38:31.059Z,42.77
2022-08-14T23:41:00.927Z,42.80
2022-08-14T23:43:30.911Z,43.01
2022-08-14T23:46:00.763Z,42.97
2022-08-14T23:48:29.808Z,42.83
2022-08-14T23:50:58.917Z,42.90
2022-08-14T23:53:47.806Z,42.89
2022-08-14T23:56:31.806Z,42.94
2022-08-14T23:59:01.359Z,42.74
